createdAt,value
2023-03-24T00:01:19.633Z,99059.22
2023-03-24T00:03:52.308Z,99070.41
2023-03-24T00:06:22.834Z,99062.56
2023-03-24T00:08:51.317Z,99057.22
2023-03-24T00:11:21.465Z,99064.56
2023-03-24T00:13:50.519Z,99058.88
2023-03-24T00:16:22.058Z,99041.16
2023-03-24T00:18:54.444Z,99055.56
2023-03-24T00:21:24.645Z,99047.53
2023-03-24T00:23:54.619Z,99045.66
2023-03-24T00:26:25.443Z,99039.50
2023-03-24T00:28:54.157Z,99039.50
2023-03-24T00:31:22.448Z,99027.97
2023-03-24T00:33:52.117Z,99032.47
2023-03-24T00:36:22.241Z,99034.97
2023-03-24T00:38:50.838Z,99027.97
2023-03-24T00:41:20.270Z,99043.16
2023-03-24T00:43:49.811Z,99059.22
2023-03-24T00:46:28.719Z,98932.72
2023-03-24T00:49:06.050Z,99059.22
2023-03-24T00:51:36.324Z,99046.84
2023-03-24T00:54:05.129Z,99044.84
2023-03-24T00:56:34.876Z,99038.66
2023-03-24T00:59:03.532Z,99029.16
2023-03-24T01:01:35.578Z,98930.69
2023-03-24T01:04:07.134Z,99022.59
2023-03-24T01:06:37.728Z,99023.44
2023-03-24T01:09:07.416Z,98852.34
2023-03-24T01:11:40.085Z,99005.06
2023-03-24T01:14:09.755Z,99007.41
2023-03-24T01:16:38.802Z,99011.06
2023-03-24T01:19:09.484Z,98999.53
2023-03-24T01:21:38.656Z,98998.69
2023-03-24T01:24:07.860Z,98987.16
2023-03-24T01:26:36.667Z,98981.81
2023-03-24T01:29:04.870Z,98994.38
2023-03-24T01:31:33.345Z,98989.03
2023-03-24T01:34:01.587Z,98981.81
2023-03-24T01:36:31.630Z,98966.94
2023-03-24T01:39:01.432Z,98962.09
2023-03-24T01:41:34.094Z,98966.09
2023-03-24T01:44:02.395Z,98963.25
2023-03-24T01:46:33.463Z,98962.91
2023-03-24T01:49:05.347Z,98970.94
2023-03-24T01:51:37.811Z,98968.25
2023-03-24T01:54:10.548Z,98957.56
2023-03-24T01:56:42.661Z,98965.56
2023-03-24T01:59:13.858Z,98969.09
2023-03-24T02:01:42.233Z,98969.94
2023-03-24T02:04:11.288Z,98969.09
2023-03-24T02:06:44.154Z,98948.53
2023-03-24T02:09:13.677Z,98948.53
2023-03-24T02:11:43.072Z,98939.84
2023-03-24T02:14:13.387Z,98819.47
2023-03-24T02:16:59.811Z,98850.00
2023-03-24T02:20:09.567Z,98929.81
2023-03-24T02:23:28.282Z,98925.44
2023-03-24T02:26:28.381Z,98909.75
2023-03-24T02:29:08.619Z,98827.47
2023-03-24T02:32:13.889Z,98899.03
2023-03-24T02:35:17.674Z,98897.22
2023-03-24T02:38:40.692Z,98887.53
2023-03-24T02:41:19.161Z,98882.53
2023-03-24T02:43:58.403Z,98876.00
2023-03-24T02:46:34.579Z,98875.13
2023-03-24T02:49:18.448Z,98860.94
2023-03-24T02:51:53.610Z,98859.09
2023-03-24T02:54:28.892Z,98856.59
2023-03-24T02:57:05.796Z,98858.28
2023-03-24T02:59:38.539Z,98857.25
2023-03-24T03:02:10.591Z,98854.59
2023-03-24T03:04:46.610Z,98855.44
2023-03-24T03:07:17.035Z,98840.19
2023-03-24T03:09:50.372Z,98840.19
2023-03-24T03:12:21.937Z,98834.84
2023-03-24T03:14:54.223Z,98840.19
2023-03-24T03:17:30.847Z,98827.16
2023-03-24T03:20:08.063Z,98831.16
2023-03-24T03:22:43.187Z,98702.59
2023-03-24T03:25:13.792Z,98829.50
2023-03-24T03:27:46.983Z,98833.19
2023-03-24T03:30:19.670Z,98820.47
2023-03-24T03:32:54.679Z,98817.78
2023-03-24T03:35:27.300Z,98799.06
2023-03-24T03:38:04.342Z,98792.03
2023-03-24T03:40:36.636Z,98790.38
2023-03-24T03:43:07.562Z,98792.03
2023-03-24T03:45:36.443Z,98763.75
2023-03-24T03:48:04.859Z,98790.03
2023-03-24T03:50:33.484Z,98782.19
2023-03-24T03:53:02.454Z,98787.34
2023-03-24T03:55:31.124Z,98717.13
2023-03-24T03:57:59.644Z,98779.31
2023-03-24T04:00:30.322Z,98779.31
2023-03-24T04:03:19.458Z,98780.97
2023-03-24T04:05:54.455Z,98775.00
2023-03-24T04:08:29.936Z,98764.28
2023-03-24T04:11:18.967Z,98757.25
2023-03-24T04:14:00.057Z,98754.59
2023-03-24T04:16:39.999Z,98749.22
2023-03-24T04:19:24.751Z,98744.25
2023-03-24T04:22:06.039Z,98741.22
2023-03-24T04:24:44.338Z,98732.38
2023-03-24T04:27:17.346Z,98734.88
2023-03-24T04:29:55.595Z,98712.13
2023-03-24T04:32:32.575Z,98714.81
2023-03-24T04:35:04.735Z,98709.09
2023-03-24T04:37:38.184Z,98522.25
2023-03-24T04:40:11.235Z,98713.47
2023-03-24T04:42:45.510Z,98702.75
2023-03-24T04:45:14.797Z,98718.81
2023-03-24T04:47:49.064Z,98701.06
2023-03-24T04:50:31.195Z,98693.06
2023-03-24T04:52:59.399Z,98686.72
2023-03-24T04:55:55.491Z,98680.34
2023-03-24T04:58:24.535Z,98668.16
2023-03-24T05:00:53.241Z,98664.47
2023-03-24T05:03:22.864Z,98658.28
2023-03-24T05:05:53.295Z,98645.09
2023-03-24T05:08:22.210Z,98659.97
2023-03-24T05:10:50.264Z,98649.25
2023-03-24T05:13:18.953Z,98521.88
2023-03-24T05:15:47.338Z,98645.56
2023-03-24T05:18:15.659Z,98634.19
2023-03-24T05:20:45.124Z,98634.84
2023-03-24T05:23:13.173Z,98629.50
2023-03-24T05:25:41.334Z,98619.84
2023-03-24T05:28:09.533Z,98624.16
2023-03-24T05:30:37.648Z,98606.16
2023-03-24T05:33:05.869Z,98608.09
2023-03-24T05:35:34.047Z,98606.09
2023-03-24T05:38:03.508Z,98599.06
2023-03-24T05:40:31.571Z,98580.69
2023-03-24T05:42:59.648Z,98600.75
2023-03-24T05:45:29.572Z,98588.34
2023-03-24T05:47:58.129Z,98587.38
2023-03-24T05:50:26.303Z,98577.66
2023-03-24T05:52:54.345Z,98574.00
2023-03-24T05:55:23.837Z,98569.63
2023-03-24T05:57:52.352Z,98554.41
2023-03-24T06:00:23.441Z,98557.94
2023-03-24T06:02:51.739Z,98561.59
2023-03-24T06:05:20.490Z,98547.59
2023-03-24T06:07:48.593Z,98547.25
2023-03-24T06:10:18.426Z,98552.59
2023-03-24T06:12:47.951Z,98541.88
2023-03-24T06:15:17.654Z,98541.88
2023-03-24T06:17:46.994Z,98531.19
2023-03-24T06:20:18.162Z,98531.19
2023-03-24T06:22:48.491Z,98536.53
2023-03-24T06:25:20.340Z,98519.66
2023-03-24T06:27:50.009Z,98514.28
2023-03-24T06:30:19.474Z,98499.47
2023-03-24T06:32:47.809Z,98515.13
2023-03-24T06:35:17.189Z,98504.81
2023-03-24T06:37:46.074Z,98415.16
2023-03-24T06:40:16.467Z,98399.13
2023-03-24T06:42:44.661Z,98407.44
2023-03-24T06:45:14.334Z,98483.56
2023-03-24T06:47:42.649Z,98470.81
2023-03-24T06:50:11.708Z,98471.47
2023-03-24T06:52:40.070Z,98466.75
2023-03-24T06:55:09.514Z,98463.06
2023-03-24T06:57:37.729Z,98460.38
2023-03-24T07:00:08.770Z,98457.72
2023-03-24T07:02:38.556Z,98445.34
2023-03-24T07:05:09.113Z,98438.59
2023-03-24T07:08:16.818Z,98426.88
2023-03-24T07:10:26.639Z,98425.22
2023-03-24T07:12:54.734Z,98293.78
2023-03-24T07:15:23.039Z,98230.56
2023-03-24T07:17:52.651Z,98388.22
2023-03-24T07:20:21.609Z,98379.16
2023-03-24T07:22:49.805Z,98387.00
2023-03-24T07:25:20.078Z,98368.44
2023-03-24T07:27:48.477Z,98366.44
2023-03-24T07:30:19.136Z,98358.19
2023-03-24T07:32:49.323Z,98346.47
2023-03-24T07:35:19.319Z,98235.38
2023-03-24T07:37:47.457Z,98305.38
2023-03-24T07:40:16.232Z,98160.50
2023-03-24T07:42:44.783Z,98318.69
2023-03-24T07:45:14.240Z,98307.97
2023-03-24T07:47:46.704Z,98307.97
2023-03-24T07:50:15.753Z,98105.28
2023-03-24T07:52:50.577Z,98268.84
2023-03-24T07:55:19.114Z,98163.75
2023-03-24T07:57:48.979Z,98256.50
2023-03-24T08:00:19.763Z,98252.81
2023-03-24T08:02:49.891Z,98249.09
2023-03-24T08:05:19.629Z,98248.09
2023-03-24T08:07:53.539Z,98154.44
2023-03-24T08:10:24.185Z,98235.50
2023-03-24T08:12:53.090Z,98227.69
2023-03-24T08:15:21.483Z,98231.00
2023-03-24T08:17:50.641Z,98215.97
2023-03-24T08:20:21.359Z,98214.94
2023-03-24T08:22:54.203Z,98181.97
2023-03-24T08:25:24.125Z,98189.81
2023-03-24T08:27:52.774Z,98179.13
2023-03-24T08:30:22.800Z,98173.78
2023-03-24T08:32:52.837Z,98170.47
2023-03-24T08:35:23.828Z,98163.44
2023-03-24T08:37:53.624Z,98171.09
2023-03-24T08:40:24.479Z,98163.06
2023-03-24T08:42:54.489Z,98157.91
2023-03-24T08:45:27.509Z,98153.59
2023-03-24T08:47:56.782Z,98143.72
2023-03-24T08:50:28.193Z,98134.03
2023-03-24T08:52:58.539Z,98125.38
2023-03-24T08:55:27.154Z,98024.78
2023-03-24T08:57:56.252Z,98119.00
2023-03-24T09:00:24.847Z,98109.53
2023-03-24T09:02:54.693Z,98099.22
2023-03-24T09:05:40.735Z,98105.03
2023-03-24T09:08:14.898Z,98105.03
2023-03-24T09:10:46.616Z,98080.09
2023-03-24T09:13:14.989Z,98072.91
2023-03-24T09:15:48.018Z,97896.66
2023-03-24T09:18:17.269Z,98063.03
2023-03-24T09:20:46.385Z,97947.91
2023-03-24T09:23:16.306Z,98041.63
2023-03-24T09:25:44.362Z,98030.94
2023-03-24T09:28:14.190Z,98029.06
2023-03-24T09:30:42.316Z,98036.28
2023-03-24T09:33:10.459Z,98025.56
2023-03-24T09:35:38.536Z,98012.19
2023-03-24T09:38:06.704Z,98020.22
2023-03-24T09:40:40.563Z,98010.13
2023-03-24T09:43:13.667Z,98010.13
2023-03-24T09:45:51.213Z,97994.47
2023-03-24T09:48:26.115Z,97992.22
2023-03-24T09:50:58.823Z,97869.91
2023-03-24T09:53:34.887Z,97978.19
2023-03-24T09:56:12.260Z,97975.72
2023-03-24T09:58:41.737Z,97979.03
2023-03-24T10:01:15.661Z,97965.03
2023-03-24T10:03:44.358Z,97969.97
2023-03-24T10:06:21.900Z,97954.31
2023-03-24T10:08:55.442Z,97852.28
2023-03-24T10:11:33.429Z,97855.34
2023-03-24T10:14:15.322Z,97967.94
2023-03-24T10:16:51.002Z,97941.16
2023-03-24T10:19:31.105Z,97941.16
2023-03-24T10:22:07.099Z,97930.47
2023-03-24T10:24:42.373Z,97814.31
2023-03-24T10:27:17.690Z,97944.88
2023-03-24T10:29:46.728Z,97932.50
2023-03-24T10:32:22.182Z,97936.84
2023-03-24T10:34:56.306Z,97939.53
2023-03-24T10:37:24.492Z,97945.88
2023-03-24T10:39:53.107Z,97936.84
2023-03-24T10:42:26.543Z,97951.25
2023-03-24T10:44:54.593Z,97953.91
2023-03-24T10:47:27.621Z,97942.38
2023-03-24T10:49:59.444Z,97946.53
2023-03-24T10:52:28.581Z,97941.16
2023-03-24T10:54:58.559Z,97942.81
2023-03-24T10:57:29.193Z,97946.53
2023-03-24T11:00:00.612Z,97951.88
2023-03-24T11:02:31.920Z,97964.22
2023-03-24T11:05:02.505Z,97961.53
2023-03-24T11:07:35.386Z,97960.94
2023-03-24T11:10:07.843Z,97980.28
2023-03-24T11:12:39.558Z,97973.69
2023-03-24T11:15:29.230Z,97977.00
2023-03-24T11:17:59.255Z,97987.28
2023-03-24T11:20:31.701Z,97985.63
2023-03-24T11:23:05.683Z,97979.63
2023-03-24T11:25:37.015Z,97994.25
2023-03-24T11:28:09.922Z,98001.25
2023-03-24T11:30:47.346Z,97982.72
2023-03-24T11:33:35.354Z,98001.66
2023-03-24T11:36:11.452Z,97989.69
2023-03-24T11:38:40.900Z,98003.06
2023-03-24T11:41:20.458Z,98000.41
2023-03-24T11:43:49.911Z,98002.44
2023-03-24T11:46:20.851Z,97999.97
2023-03-24T11:48:52.661Z,98002.44
2023-03-24T11:51:35.457Z,97999.78
2023-03-24T11:54:07.036Z,98000.81
2023-03-24T11:56:41.820Z,98013.16
2023-03-24T11:59:22.849Z,98000.81
2023-03-24T12:01:59.370Z,98009.03
2023-03-24T12:04:39.550Z,98008.19
2023-03-24T12:07:35.285Z,98007.16
2023-03-24T12:10:15.523Z,98025.88
2023-03-24T12:12:58.130Z,98020.53
2023-03-24T12:15:41.325Z,98024.25
2023-03-24T12:18:27.381Z,98003.25
2023-03-24T12:21:02.545Z,97926.34
2023-03-24T12:23:38.982Z,98001.19
2023-03-24T12:26:16.788Z,98015.59
2023-03-24T12:28:55.414Z,98023.00
2023-03-24T12:31:47.782Z,98007.75
2023-03-24T12:34:39.107Z,98023.00
2023-03-24T12:37:14.611Z,98038.66
2023-03-24T12:39:50.057Z,98035.59
2023-03-24T12:42:20.459Z,98031.88
2023-03-24T12:45:17.718Z,98048.56
2023-03-24T12:48:12.907Z,98059.06
2023-03-24T12:50:52.950Z,98067.91
2023-03-24T12:53:36.618Z,98091.00
2023-03-24T12:56:10.774Z,98096.34
2023-03-24T12:58:45.139Z,98124.75
2023-03-24T13:01:20.883Z,98156.84
2023-03-24T13:03:55.905Z,98167.56
2023-03-24T13:06:29.526Z,98094.09
2023-03-24T13:09:09.059Z,98111.25
2023-03-24T13:11:46.260Z,98186.94
2023-03-24T13:14:20.372Z,98181.56
2023-03-24T13:16:49.470Z,98188.56
2023-03-24T13:19:24.237Z,98117.00
2023-03-24T13:21:55.835Z,98210.44
2023-03-24T13:24:26.178Z,98204.25
2023-03-24T13:27:05.678Z,98141.78
2023-03-24T13:30:11.326Z,98216.19
2023-03-24T13:32:45.658Z,98217.88
2023-03-24T13:35:25.430Z,98230.22
2023-03-24T13:37:58.596Z,98238.44
2023-03-24T13:40:29.104Z,98234.31
2023-03-24T13:42:59.464Z,98234.31
2023-03-24T13:45:40.320Z,98130.84
2023-03-24T13:48:23.734Z,98243.34
2023-03-24T13:50:57.636Z,98252.03
2023-03-24T13:53:39.209Z,98264.38
2023-03-24T13:56:10.307Z,98259.03
2023-03-24T13:59:07.253Z,98261.09
2023-03-24T14:01:37.982Z,98266.84
2023-03-24T14:04:29.053Z,98275.84
2023-03-24T14:07:00.156Z,98185.19
2023-03-24T14:09:30.088Z,98267.59
2023-03-24T14:12:25.001Z,98266.06
2023-03-24T14:15:19.850Z,98281.72
2023-03-24T14:17:50.995Z,98274.31
2023-03-24T14:20:29.869Z,98268.94
2023-03-24T14:22:59.520Z,98148.41
2023-03-24T14:25:30.318Z,98161.81
2023-03-24T14:28:26.848Z,98272.28
2023-03-24T14:31:13.324Z,98279.28
2023-03-24T14:33:45.602Z,98281.94
2023-03-24T14:36:23.325Z,98275.59
2023-03-24T14:38:53.414Z,98282.78
2023-03-24T14:41:29.595Z,98282.59
2023-03-24T14:44:00.243Z,98188.25
2023-03-24T14:46:37.912Z,98178.34
2023-03-24T14:49:14.824Z,98282.59
2023-03-24T14:51:47.112Z,98292.47
2023-03-24T14:54:19.056Z,98289.59
2023-03-24T14:56:52.973Z,98289.59
2023-03-24T14:59:34.663Z,98215.91
2023-03-24T15:02:13.298Z,98298.66
2023-03-24T15:04:41.387Z,98308.72
2023-03-24T15:07:15.192Z,98305.03
2023-03-24T15:09:51.216Z,98307.72
2023-03-24T15:12:19.639Z,98312.25
2023-03-24T15:14:47.811Z,98148.03
2023-03-24T15:17:22.825Z,98316.75
2023-03-24T15:19:52.754Z,98320.47
2023-03-24T15:22:21.594Z,98324.78
2023-03-24T15:24:53.090Z,98328.28
2023-03-24T15:27:26.733Z,98327.47
2023-03-24T15:29:57.736Z,98311.56
2023-03-24T15:32:31.643Z,98325.81
2023-03-24T15:35:05.775Z,98325.81
2023-03-24T15:37:40.109Z,98324.97
2023-03-24T15:40:36.267Z,98324.16
2023-03-24T15:43:08.029Z,98327.84
2023-03-24T15:45:38.944Z,98330.53
2023-03-24T15:48:10.112Z,98330.53
2023-03-24T15:50:40.532Z,98337.75
2023-03-24T15:53:24.782Z,98335.44
2023-03-24T15:56:08.753Z,98235.91
2023-03-24T15:58:53.088Z,98340.22
2023-03-24T16:01:31.459Z,98203.97
2023-03-24T16:04:02.553Z,98342.25
2023-03-24T16:06:35.342Z,98331.56
2023-03-24T16:09:08.761Z,98342.25
2023-03-24T16:11:38.198Z,98336.06
2023-03-24T16:14:21.824Z,98336.91
2023-03-24T16:16:50.275Z,98334.75
2023-03-24T16:19:18.410Z,98344.28
2023-03-24T16:21:46.513Z,98351.31
2023-03-24T16:24:14.569Z,98356.03
2023-03-24T16:26:44.747Z,98350.47
2023-03-24T16:29:17.533Z,98351.31
2023-03-24T16:31:49.219Z,98364.72
2023-03-24T16:34:18.767Z,98348.00
2023-03-24T16:36:47.032Z,98359.34
2023-03-24T16:39:17.227Z,98360.16
2023-03-24T16:41:47.551Z,98267.06
2023-03-24T16:44:17.490Z,98362.03
2023-03-24T16:46:47.226Z,98362.22
2023-03-24T16:49:17.364Z,98376.41
2023-03-24T16:51:46.177Z,98388.78
2023-03-24T16:54:14.572Z,98376.41
2023-03-24T16:56:42.693Z,98285.50
2023-03-24T16:59:12.619Z,98383.44
2023-03-24T17:01:41.775Z,98211.53
2023-03-24T17:04:13.302Z,98384.63
2023-03-24T17:06:43.117Z,98286.06
2023-03-24T17:09:12.749Z,98330.66
2023-03-24T17:11:43.012Z,98237.66
2023-03-24T17:14:13.300Z,98300.47
2023-03-24T17:19:13.095Z,98230.44
2023-03-24T17:21:44.973Z,98395.28
2023-03-24T17:24:13.873Z,98404.22
2023-03-24T17:26:42.653Z,98406.88
2023-03-24T17:29:13.486Z,98403.56
2023-03-24T17:31:43.299Z,98409.75
2023-03-24T17:34:21.506Z,98421.28
2023-03-24T17:36:51.415Z,98417.59
2023-03-24T17:39:21.205Z,98422.94
2023-03-24T17:41:49.787Z,98426.00
2023-03-24T17:44:19.275Z,98406.38
2023-03-24T17:46:47.413Z,98428.31
2023-03-24T17:49:15.611Z,98423.97
2023-03-24T17:51:43.690Z,98434.88
2023-03-24T17:54:11.928Z,98439.00
2023-03-24T17:56:40.172Z,98444.34
2023-03-24T17:59:08.347Z,98437.34
2023-03-24T18:01:39.534Z,98444.34
2023-03-24T18:04:08.007Z,98440.03
2023-03-24T18:06:36.117Z,98295.94
2023-03-24T18:09:04.420Z,98448.44
2023-03-24T18:11:32.925Z,98458.78
2023-03-24T18:14:01.038Z,98454.22
2023-03-24T18:16:30.878Z,98450.75
2023-03-24T18:19:01.860Z,98450.94
2023-03-24T18:21:30.158Z,98464.13
2023-03-24T18:23:58.651Z,98458.78
2023-03-24T18:26:27.010Z,98394.84
2023-03-24T18:28:55.644Z,98308.25
2023-03-24T18:31:26.226Z,98464.13
2023-03-24T18:33:55.752Z,98464.13
2023-03-24T18:36:27.359Z,98474.00
2023-03-24T18:38:59.961Z,98469.47
2023-03-24T18:41:30.064Z,98472.53
2023-03-24T18:43:59.758Z,98474.00
2023-03-24T18:46:28.816Z,98485.53
2023-03-24T18:48:57.217Z,98489.22
2023-03-24T18:51:28.012Z,98473.16
2023-03-24T18:53:56.131Z,98483.84
2023-03-24T18:56:24.499Z,98359.84
2023-03-24T18:58:53.189Z,98478.50
2023-03-24T19:01:25.578Z,98494.56
2023-03-24T19:03:54.438Z,98494.56
2023-03-24T19:06:26.219Z,98494.56
2023-03-24T19:08:55.892Z,98492.91
2023-03-24T19:11:24.127Z,98499.91
2023-03-24T19:13:52.268Z,98501.78
2023-03-24T19:16:21.624Z,98498.28
2023-03-24T19:18:50.766Z,98420.69
2023-03-24T19:21:19.565Z,98504.66
2023-03-24T19:23:49.376Z,98507.31
2023-03-24T19:26:20.913Z,98512.69
2023-03-24T19:28:49.150Z,98514.34
2023-03-24T19:31:18.782Z,98426.06
2023-03-24T19:33:47.949Z,98508.97
2023-03-24T19:36:18.356Z,98519.03
2023-03-24T19:38:46.476Z,98511.38
2023-03-24T19:41:16.201Z,98521.34
2023-03-24T19:43:45.674Z,98517.66
2023-03-24T19:46:13.819Z,98513.44
2023-03-24T19:48:41.919Z,98523.38
2023-03-24T19:51:09.980Z,98523.38
2023-03-24T19:53:38.176Z,98523.38
2023-03-24T19:56:06.940Z,98528.75
2023-03-24T19:58:35.050Z,98536.78
2023-03-24T20:01:04.763Z,98534.09
2023-03-24T20:03:33.140Z,98529.75
2023-03-24T20:06:05.975Z,98526.06
2023-03-24T20:08:34.026Z,98398.50
2023-03-24T20:11:03.691Z,98542.13
2023-03-24T20:13:31.817Z,98544.81
2023-03-24T20:15:59.923Z,98540.25
2023-03-24T20:18:29.428Z,98541.09
2023-03-24T20:20:57.587Z,98542.13
2023-03-24T20:23:25.748Z,98546.44
2023-03-24T20:25:53.882Z,98544.81
2023-03-24T20:28:21.939Z,98555.50
2023-03-24T20:30:51.558Z,98547.47
2023-03-24T20:33:19.784Z,98550.97
2023-03-24T20:35:49.515Z,98552.19
2023-03-24T20:38:17.853Z,98550.16
2023-03-24T20:40:47.652Z,98550.16
2023-03-24T20:43:16.864Z,98553.81
2023-03-24T20:45:45.006Z,98553.81
2023-03-24T20:48:13.110Z,98554.00
2023-03-24T20:50:42.192Z,98556.50
2023-03-24T20:53:11.708Z,98563.72
2023-03-24T20:55:39.802Z,98547.38
2023-03-24T20:58:08.556Z,98554.84
2023-03-24T21:00:38.067Z,98434.16
2023-03-24T21:03:06.326Z,98564.72
2023-03-24T21:05:34.513Z,98468.63
2023-03-24T21:08:02.684Z,98560.41
2023-03-24T21:10:32.523Z,98572.56
2023-03-24T21:13:00.638Z,98478.16
2023-03-24T21:15:29.004Z,98560.41
2023-03-24T21:17:57.273Z,98571.56
2023-03-24T21:20:27.056Z,98575.25
2023-03-24T21:22:55.801Z,98571.56
2023-03-24T21:25:26.254Z,98571.56
2023-03-24T21:27:56.428Z,98569.25
2023-03-24T21:30:25.080Z,98576.91
2023-03-24T21:32:55.145Z,98576.06
2023-03-24T21:35:24.975Z,98569.88
2023-03-24T21:37:54.012Z,98574.44
2023-03-24T21:40:24.219Z,98569.88
2023-03-24T21:42:53.841Z,98569.88
2023-03-24T21:45:24.619Z,98578.75
2023-03-24T21:47:54.699Z,98566.22
2023-03-24T21:50:24.089Z,98582.28
2023-03-24T21:52:54.012Z,98564.53
2023-03-24T21:55:25.397Z,98564.53
2023-03-24T21:57:54.001Z,98571.56
2023-03-24T22:00:25.383Z,98470.28
2023-03-24T22:02:58.357Z,98577.28
2023-03-24T22:05:27.886Z,98563.72
2023-03-24T22:07:56.223Z,98569.88
2023-03-24T22:10:24.490Z,98568.25
2023-03-24T22:12:54.040Z,98569.88
2023-03-24T22:15:24.806Z,98569.88
2023-03-24T22:17:53.017Z,98575.25
2023-03-24T22:20:21.423Z,98572.56
2023-03-24T22:22:49.613Z,98571.94
2023-03-24T22:25:19.486Z,98575.25
2023-03-24T22:27:50.027Z,98580.59
2023-03-24T22:30:18.964Z,98434.53
2023-03-24T22:32:48.546Z,98580.59
2023-03-24T22:35:16.844Z,98578.75
2023-03-24T22:37:44.983Z,98580.59
2023-03-24T22:40:13.196Z,98574.81
2023-03-24T22:42:41.301Z,98585.94
2023-03-24T22:45:10.385Z,98427.88
2023-03-24T22:47:38.489Z,98581.63
2023-03-24T22:50:09.707Z,98584.28
2023-03-24T22:52:37.804Z,98585.94
2023-03-24T22:55:06.548Z,98602.00
2023-03-24T22:57:34.789Z,98587.63
2023-03-24T23:00:03.385Z,98587.63
2023-03-24T23:02:31.630Z,98595.00
2023-03-24T23:04:59.751Z,98595.84
2023-03-24T23:07:29.715Z,98591.22
2023-03-24T23:09:59.529Z,98599.31
2023-03-24T23:12:27.909Z,98602.00
2023-03-24T23:14:56.149Z,98594.16
2023-03-24T23:17:25.448Z,98607.34
2023-03-24T23:19:53.669Z,98595.38
2023-03-24T23:22:22.536Z,98614.59
2023-03-24T23:25:00.480Z,98600.34
2023-03-24T23:27:34.516Z,98600.34
2023-03-24T23:30:02.824Z,98605.72
2023-03-24T23:32:33.561Z,98599.31
2023-03-24T23:35:02.997Z,98611.06
2023-03-24T23:37:32.238Z,98604.06
2023-03-24T23:40:08.339Z,98479.13
2023-03-24T23:42:37.461Z,98610.22
2023-03-24T23:45:06.160Z,98611.91
2023-03-24T23:47:35.051Z,98608.38
2023-03-24T23:50:03.238Z,98613.75
2023-03-24T23:52:31.337Z,98609.41
2023-03-24T23:54:59.608Z,98609.41
2023-03-24T23:57:29.407Z,98600.34
2023-03-24T23:59:57.869Z,98596.22
